createdAt,value
2018-10-12T00:01:04.364Z,33.30
2018-10-12T00:03:31.854Z,29.63
2018-10-12T00:05:59.330Z,32.07
2018-10-12T00:08:26.607Z,30.73
2018-10-12T00:10:53.881Z,31.53
2018-10-12T00:13:21.289Z,29.40
2018-10-12T00:15:48.783Z,29.80
2018-10-12T00:18:16.079Z,32.33
2018-10-12T00:20:43.510Z,32.97
2018-10-12T00:23:10.795Z,30.73
2018-10-12T00:25:38.098Z,32.17
2018-10-12T00:28:05.762Z,31.83
2018-10-12T00:30:33.063Z,27.40
2018-10-12T00:33:00.315Z,31.03
2018-10-12T00:35:27.618Z,30.73
2018-10-12T00:37:54.898Z,31.63
2018-10-12T00:40:22.181Z,31.37
2018-10-12T00:42:50.575Z,33.27
2018-10-12T00:45:18.021Z,30.03
2018-10-12T00:47:49.905Z,29.03
2018-10-12T00:50:17.363Z,32.43
2018-10-12T00:52:44.626Z,32.43
2018-10-12T00:55:11.950Z,31.83
2018-10-12T00:57:39.389Z,29.70
2018-10-12T01:00:06.748Z,32.23
2018-10-12T01:02:34.039Z,31.00
2018-10-12T01:05:01.456Z,28.70
2018-10-12T01:07:28.735Z,29.27
2018-10-12T01:09:56.051Z,33.37
2018-10-12T01:12:30.195Z,31.17
2018-10-12T01:14:57.872Z,32.03
2018-10-12T01:17:25.433Z,31.90
2018-10-12T01:19:53.010Z,33.10
2018-10-12T01:22:20.347Z,35.80
2018-10-12T01:24:47.702Z,32.60
2018-10-12T01:27:15.150Z,32.80
2018-10-12T01:29:42.508Z,36.37
2018-10-12T01:32:14.378Z,35.03
2018-10-12T01:34:41.981Z,34.40
2018-10-12T01:37:09.285Z,36.97
2018-10-12T01:39:36.604Z,36.10
2018-10-12T01:42:04.128Z,38.57
2018-10-12T01:44:31.412Z,36.13
2018-10-12T01:46:58.745Z,34.93
2018-10-12T01:49:26.300Z,33.87
2018-10-12T01:51:53.625Z,35.97
2018-10-12T01:54:20.943Z,37.23
2018-10-12T01:56:48.343Z,33.83
2018-10-12T01:59:15.651Z,35.57
2018-10-12T02:01:42.933Z,37.40
2018-10-12T02:04:10.326Z,37.63
2018-10-12T02:06:37.622Z,37.10
2018-10-12T02:09:05.739Z,34.60
2018-10-12T02:11:33.083Z,39.10
2018-10-12T02:14:00.349Z,37.43
2018-10-12T02:16:27.779Z,39.10
2018-10-12T02:18:55.188Z,40.80
2018-10-12T02:21:22.469Z,36.87
2018-10-12T02:23:49.757Z,39.53
2018-10-12T02:26:17.162Z,43.07
2018-10-12T02:28:44.425Z,38.33
2018-10-12T02:31:11.719Z,38.10
2018-10-12T02:33:39.117Z,38.50
2018-10-12T02:36:06.494Z,40.47
2018-10-12T02:38:33.830Z,41.90
2018-10-12T02:41:01.267Z,41.23
2018-10-12T02:43:28.558Z,40.07
2018-10-12T02:45:55.860Z,43.40
2018-10-12T02:48:23.277Z,37.57
2018-10-12T02:50:50.593Z,41.87
2018-10-12T02:53:17.963Z,42.50
2018-10-12T02:55:45.721Z,42.77
2018-10-12T02:58:12.990Z,45.17
2018-10-12T03:00:40.279Z,40.03
2018-10-12T03:03:07.673Z,39.60
2018-10-12T03:05:34.974Z,43.83
2018-10-12T03:08:02.283Z,41.27
2018-10-12T03:10:29.665Z,41.10
2018-10-12T03:12:56.940Z,39.83
2018-10-12T03:15:24.229Z,38.53
2018-10-12T03:17:51.614Z,41.07
2018-10-12T03:20:19.062Z,41.30
2018-10-12T03:22:46.462Z,40.23
2018-10-12T03:25:13.962Z,37.47
2018-10-12T03:27:53.042Z,42.60
2018-10-12T03:30:20.603Z,42.37
2018-10-12T03:32:48.003Z,42.67
2018-10-12T03:35:15.765Z,46.20
2018-10-12T03:37:43.363Z,46.73
2018-10-12T03:40:10.741Z,46.30
2018-10-12T03:42:38.140Z,40.70
2018-10-12T03:45:05.670Z,40.20
2018-10-12T03:47:33.208Z,44.73
2018-10-12T03:50:00.556Z,41.67
2018-10-12T03:52:27.968Z,41.33
2018-10-12T03:54:55.346Z,40.03
2018-10-12T03:57:22.772Z,41.87
2018-10-12T03:59:50.178Z,44.60
2018-10-12T04:02:17.483Z,41.23
2018-10-12T04:04:44.807Z,38.10
2018-10-12T04:07:12.267Z,42.10
2018-10-12T04:09:39.561Z,37.70
2018-10-12T04:12:06.827Z,43.60
2018-10-12T04:14:34.449Z,39.00
2018-10-12T04:17:01.784Z,41.80
2018-10-12T04:19:29.108Z,42.20
2018-10-12T04:21:56.574Z,40.20
2018-10-12T04:24:23.824Z,43.77
2018-10-12T04:26:51.133Z,42.40
2018-10-12T04:29:18.463Z,44.10
2018-10-12T04:31:45.827Z,38.93
2018-10-12T04:34:13.121Z,39.70
2018-10-12T04:36:40.538Z,43.73
2018-10-12T04:40:19.644Z,40.30
2018-10-12T04:42:46.980Z,39.80
2018-10-12T04:45:14.343Z,40.70
2018-10-12T04:47:42.227Z,42.43
2018-10-12T04:50:09.704Z,45.37
2018-10-12T04:52:37.026Z,46.33
2018-10-12T04:55:04.332Z,42.63
2018-10-12T04:57:31.788Z,45.77
2018-10-12T04:59:59.088Z,40.70
2018-10-12T05:02:26.410Z,41.07
2018-10-12T05:04:53.849Z,40.93
2018-10-12T05:07:21.153Z,46.40
2018-10-12T05:09:48.471Z,47.57
2018-10-12T05:12:15.864Z,43.57
2018-10-12T05:14:43.135Z,47.27
2018-10-12T05:17:10.489Z,42.57
2018-10-12T05:19:37.856Z,42.00
2018-10-12T05:22:05.461Z,49.47
2018-10-12T05:24:32.925Z,44.83
2018-10-12T05:27:00.668Z,39.00
2018-10-12T05:29:27.960Z,48.40
2018-10-12T05:31:55.250Z,43.77
2018-10-12T05:34:22.749Z,46.60
2018-10-12T05:36:50.059Z,46.33
2018-10-12T05:39:17.451Z,39.83
2018-10-12T05:41:44.939Z,44.77
2018-10-12T05:44:12.211Z,42.50
2018-10-12T05:46:42.066Z,43.80
2018-10-12T05:49:21.828Z,42.30
2018-10-12T05:51:49.647Z,41.40
2018-10-12T05:54:17.003Z,40.03
2018-10-12T05:56:44.751Z,40.33
2018-10-12T05:59:12.752Z,43.60
2018-10-12T06:01:40.163Z,43.90
2018-10-12T06:04:07.556Z,43.73
2018-10-12T06:06:34.931Z,44.27
2018-10-12T06:09:02.688Z,40.03
2018-10-12T06:11:30.055Z,42.70
2018-10-12T06:13:57.367Z,41.97
2018-10-12T06:16:24.687Z,38.83
2018-10-12T06:18:52.119Z,40.00
2018-10-12T06:21:19.418Z,42.90
2018-10-12T06:23:46.775Z,40.10
2018-10-12T06:26:14.695Z,41.20
2018-10-12T06:28:41.979Z,41.30
2018-10-12T06:31:10.908Z,37.97
2018-10-12T06:33:38.271Z,38.37
2018-10-12T06:36:10.973Z,41.57
2018-10-12T06:38:38.344Z,42.23
2018-10-12T06:41:08.177Z,37.77
2018-10-12T06:43:35.427Z,39.30
2018-10-12T06:46:02.863Z,42.80
2018-10-12T06:48:30.256Z,34.63
2018-10-12T06:50:57.507Z,34.90
2018-10-12T06:53:24.872Z,41.83
2018-10-12T06:55:52.123Z,37.07
2018-10-12T06:58:19.491Z,38.10
2018-10-12T07:00:46.960Z,37.97
2018-10-12T07:03:14.294Z,38.30
2018-10-12T07:05:41.672Z,33.70
2018-10-12T07:08:09.195Z,37.73
2018-10-12T07:10:36.492Z,35.67
2018-10-12T07:13:04.379Z,36.13
2018-10-12T07:15:31.839Z,32.00
2018-10-12T07:17:59.116Z,34.50
2018-10-12T07:20:26.513Z,38.50
2018-10-12T07:22:54.039Z,33.73
2018-10-12T07:25:21.269Z,34.17
2018-10-12T07:27:48.553Z,30.93
2018-10-12T07:30:15.923Z,30.50
2018-10-12T07:32:43.204Z,38.60
2018-10-12T07:35:10.465Z,36.80
2018-10-12T07:37:37.957Z,34.17
2018-10-12T07:40:05.548Z,31.93
2018-10-12T07:42:32.865Z,39.23
2018-10-12T07:45:00.183Z,34.23
2018-10-12T07:47:27.541Z,39.07
2018-10-12T07:49:54.792Z,31.40
2018-10-12T07:52:22.229Z,32.70
2018-10-12T07:54:49.459Z,33.47
2018-10-12T07:57:16.719Z,35.87
2018-10-12T07:59:44.972Z,31.63
2018-10-12T08:02:12.943Z,33.77
2018-10-12T08:04:41.238Z,28.50
2018-10-12T08:07:09.084Z,33.03
2018-10-12T08:09:36.989Z,34.33
2018-10-12T08:12:04.389Z,29.30
2018-10-12T08:14:31.863Z,32.47
2018-10-12T08:16:59.745Z,27.83
2018-10-12T08:19:27.055Z,32.33
2018-10-12T08:21:54.483Z,33.03
2018-10-12T08:24:21.759Z,37.23
2018-10-12T08:26:49.211Z,30.40
2018-10-12T08:29:16.476Z,30.27
2018-10-12T08:31:43.755Z,33.27
2018-10-12T08:34:16.500Z,27.30
2018-10-12T08:36:43.913Z,32.47
2018-10-12T08:39:12.310Z,29.87
2018-10-12T08:41:39.649Z,27.60
2018-10-12T08:44:07.090Z,30.60
2018-10-12T08:46:34.733Z,28.43
2018-10-12T08:49:01.987Z,30.87
2018-10-12T08:51:29.515Z,31.90
2018-10-12T08:53:56.755Z,30.23
2018-10-12T08:56:24.103Z,30.27
2018-10-12T08:58:51.463Z,29.67
2018-10-12T09:01:18.707Z,27.87
2018-10-12T09:03:46.129Z,28.40
2018-10-12T09:06:20.111Z,27.53
2018-10-12T09:08:47.339Z,29.43
2018-10-12T09:11:14.564Z,31.37
2018-10-12T09:13:41.931Z,30.60
2018-10-12T09:16:09.247Z,30.03
2018-10-12T09:18:36.529Z,24.43
2018-10-12T09:21:03.939Z,28.13
2018-10-12T09:23:31.415Z,28.47
2018-10-12T09:25:58.767Z,32.23
2018-10-12T09:28:26.167Z,30.53
2018-10-12T09:30:53.488Z,23.40
2018-10-12T09:33:20.765Z,30.10
2018-10-12T09:35:48.348Z,27.77
2018-10-12T09:38:15.771Z,31.40
2018-10-12T09:40:43.110Z,28.17
2018-10-12T09:43:11.051Z,26.60
2018-10-12T09:45:38.336Z,28.17
2018-10-12T09:48:05.740Z,28.93
2018-10-12T09:50:33.135Z,28.00
2018-10-12T09:53:00.399Z,27.77
2018-10-12T09:55:27.659Z,26.70
2018-10-12T09:57:55.107Z,27.73
2018-10-12T10:00:28.051Z,30.80
2018-10-12T10:03:02.910Z,29.37
2018-10-12T10:05:30.382Z,27.53
2018-10-12T10:07:57.837Z,27.83
2018-10-12T10:10:25.120Z,28.07
2018-10-12T10:12:52.375Z,28.57
2018-10-12T10:15:19.714Z,27.77
2018-10-12T10:17:47.151Z,29.37
2018-10-12T10:20:14.407Z,26.27
2018-10-12T10:22:41.632Z,29.23
2018-10-12T10:25:09.136Z,25.63
2018-10-12T10:27:36.396Z,29.27
2018-10-12T10:30:03.692Z,27.00
2018-10-12T10:32:31.141Z,25.70
2018-10-12T10:34:58.376Z,24.53
2018-10-12T10:37:25.638Z,27.83
2018-10-12T10:39:53.104Z,27.77
2018-10-12T10:42:20.436Z,27.67
2018-10-12T10:44:47.699Z,29.77
2018-10-12T10:47:15.080Z,26.13
2018-10-12T10:49:42.329Z,27.37
2018-10-12T10:52:09.615Z,30.07
2018-10-12T10:54:37.177Z,30.47
2018-10-12T10:57:05.616Z,26.17
2018-10-12T10:59:34.501Z,27.27
2018-10-12T11:02:01.900Z,26.47
2018-10-12T11:04:30.057Z,25.93
2018-10-12T11:06:57.400Z,27.57
2018-10-12T11:09:24.768Z,25.47
2018-10-12T11:11:52.024Z,23.93
2018-10-12T11:14:19.275Z,28.63
2018-10-12T11:16:46.664Z,28.47
2018-10-12T11:19:13.934Z,27.23
2018-10-12T11:21:41.224Z,26.77
2018-10-12T11:24:08.781Z,23.50
2018-10-12T11:26:36.681Z,27.13
2018-10-12T11:29:04.011Z,25.13
2018-10-12T11:31:31.434Z,29.90
2018-10-12T11:33:59.413Z,26.60
2018-10-12T11:36:26.857Z,28.67
2018-10-12T11:38:54.240Z,24.83
2018-10-12T11:41:22.324Z,25.40
2018-10-12T11:43:49.593Z,24.77
2018-10-12T11:46:17.036Z,28.60
2018-10-12T11:48:44.443Z,27.90
2018-10-12T11:51:11.675Z,28.97
2018-10-12T11:53:39.061Z,25.97
2018-10-12T11:56:06.341Z,29.53
2018-10-12T11:58:34.527Z,27.37
2018-10-12T12:01:02.018Z,27.30
2018-10-12T12:03:29.210Z,31.23
2018-10-12T12:05:56.504Z,29.77
2018-10-12T12:08:23.963Z,25.87
2018-10-12T12:10:55.840Z,30.10
2018-10-12T12:13:23.256Z,26.13
2018-10-12T12:15:50.664Z,26.73
2018-10-12T12:18:17.943Z,24.80
2018-10-12T12:20:45.253Z,27.50
2018-10-12T12:23:12.599Z,24.60
2018-10-12T12:25:40.482Z,28.63
2018-10-12T12:28:08.007Z,28.37
2018-10-12T12:30:35.958Z,28.87
2018-10-12T12:33:03.900Z,28.63
2018-10-12T12:35:31.444Z,26.50
2018-10-12T12:37:59.228Z,27.33
2018-10-12T12:40:26.468Z,25.33
2018-10-12T12:42:53.724Z,26.20
2018-10-12T12:45:21.199Z,26.47
2018-10-12T12:47:48.616Z,26.47
2018-10-12T12:50:15.775Z,24.90
2018-10-12T12:52:43.864Z,27.63
2018-10-12T12:55:12.203Z,27.50
2018-10-12T12:57:41.536Z,28.57
2018-10-12T13:00:09.241Z,31.93
2018-10-12T13:02:38.461Z,26.17
2018-10-12T13:05:05.728Z,25.93
2018-10-12T13:07:33.092Z,25.50
2018-10-12T13:10:00.418Z,26.33
2018-10-12T13:12:27.691Z,29.57
2018-10-12T13:14:55.071Z,30.60
2018-10-12T13:17:22.340Z,27.60
2018-10-12T13:19:49.654Z,26.37
2018-10-12T13:22:17.647Z,27.20
2018-10-12T13:24:44.947Z,26.07
2018-10-12T13:27:12.199Z,29.17
2018-10-12T13:29:39.575Z,25.97
2018-10-12T13:32:06.871Z,26.67
2018-10-12T13:34:34.084Z,26.23
2018-10-12T13:39:40.658Z,26.07
2018-10-12T13:42:08.019Z,28.47
2018-10-12T13:44:35.270Z,28.23
2018-10-12T13:47:02.510Z,29.27
2018-10-12T13:49:30.004Z,29.00
2018-10-12T13:51:57.270Z,29.47
2018-10-12T13:54:24.569Z,26.83
2018-10-12T13:56:56.911Z,31.27
2018-10-12T13:59:24.507Z,28.67
2018-10-12T14:01:53.653Z,29.50
2018-10-12T14:04:21.127Z,25.20
2018-10-12T14:06:49.233Z,26.60
2018-10-12T14:09:16.517Z,27.07
2018-10-12T14:11:43.797Z,27.37
2018-10-12T14:14:11.030Z,30.90
2018-10-12T14:16:38.256Z,22.90
2018-10-12T14:19:05.887Z,29.00
2018-10-12T14:21:32.870Z,25.80
2018-10-12T14:24:00.092Z,26.57
2018-10-12T14:26:27.448Z,32.60
2018-10-12T14:28:54.687Z,26.00
2018-10-12T14:31:22.009Z,27.53
2018-10-12T14:33:49.320Z,27.77
2018-10-12T14:36:16.584Z,27.93
2018-10-12T14:38:43.915Z,29.77
2018-10-12T14:41:11.263Z,26.00
2018-10-12T14:43:38.537Z,32.20
2018-10-12T14:46:05.822Z,30.97
2018-10-12T14:48:34.519Z,30.23
2018-10-12T14:51:07.973Z,28.47
2018-10-12T14:53:35.681Z,32.33
2018-10-12T14:56:02.762Z,28.53
2018-10-12T14:58:32.278Z,29.50
2018-10-12T15:01:00.704Z,34.53
2018-10-12T15:03:28.235Z,28.63
2018-10-12T15:05:55.440Z,27.10
2018-10-12T15:08:22.912Z,29.17
2018-10-12T15:10:50.131Z,32.13
2018-10-12T15:13:17.366Z,26.40
2018-10-12T15:15:44.806Z,31.30
2018-10-12T15:18:12.034Z,32.40
2018-10-12T15:20:39.263Z,33.13
2018-10-12T15:23:06.653Z,34.03
2018-10-12T15:25:34.729Z,30.03
2018-10-12T15:28:01.913Z,30.33
2018-10-12T15:30:29.312Z,29.50
2018-10-12T15:32:56.559Z,30.63
2018-10-12T15:35:23.872Z,28.30
2018-10-12T15:37:51.142Z,30.27
2018-10-12T15:40:18.409Z,29.97
2018-10-12T15:42:45.666Z,28.13
2018-10-12T15:45:14.845Z,29.67
2018-10-12T15:47:42.107Z,29.73
2018-10-12T15:50:09.375Z,33.77
2018-10-12T15:52:36.793Z,33.43
2018-10-12T15:55:04.119Z,32.90
2018-10-12T15:57:31.908Z,38.97
2018-10-12T15:59:59.267Z,32.57
2018-10-12T16:02:26.508Z,33.03
2018-10-12T16:04:53.805Z,35.40
2018-10-12T16:07:21.228Z,36.57
2018-10-12T16:09:50.140Z,38.60
2018-10-12T16:12:18.211Z,40.37
2018-10-12T16:14:45.644Z,35.70
2018-10-12T16:17:12.912Z,42.03
2018-10-12T16:19:40.151Z,35.73
2018-10-12T16:22:07.889Z,34.23
2018-10-12T16:24:35.136Z,37.40
2018-10-12T16:27:02.434Z,36.10
2018-10-12T16:29:29.851Z,39.37
2018-10-12T16:31:57.087Z,39.90
2018-10-12T16:34:24.292Z,40.57
2018-10-12T16:36:51.619Z,39.10
2018-10-12T16:39:18.865Z,37.97
2018-10-12T16:41:46.162Z,41.47
2018-10-12T16:44:13.521Z,33.23
2018-10-12T16:46:41.543Z,36.07
2018-10-12T16:49:08.771Z,41.00
2018-10-12T16:51:36.098Z,38.83
2018-10-12T16:54:03.552Z,41.83
2018-10-12T16:56:31.862Z,36.43
2018-10-12T16:59:05.833Z,37.63
2018-10-12T17:01:34.682Z,43.00
2018-10-12T17:04:02.019Z,43.43
2018-10-12T17:06:29.379Z,43.10
2018-10-12T17:08:56.655Z,41.17
2018-10-12T17:11:24.184Z,43.43
2018-10-12T17:13:51.403Z,40.40
2018-10-12T17:16:18.652Z,44.10
2018-10-12T17:18:52.285Z,46.80
2018-10-12T17:21:19.535Z,45.33
2018-10-12T17:23:46.772Z,49.87
2018-10-12T17:26:14.171Z,46.07
2018-10-12T17:28:54.096Z,43.80
2018-10-12T17:31:26.487Z,43.00
2018-10-12T17:34:27.039Z,42.07
2018-10-12T17:37:02.565Z,40.63
2018-10-12T17:39:38.978Z,44.30
2018-10-12T17:42:27.232Z,43.43
2018-10-12T17:44:56.820Z,45.37
2018-10-12T17:50:48.361Z,46.53
2018-10-12T17:53:17.908Z,44.93
2018-10-12T17:55:45.196Z,43.47
2018-10-12T17:58:12.528Z,46.73
2018-10-12T18:00:39.780Z,49.53
2018-10-12T18:03:07.031Z,44.20
2018-10-12T18:05:34.388Z,48.83
2018-10-12T18:08:01.655Z,56.10
2018-10-12T18:10:28.921Z,47.10
2018-10-12T18:12:56.295Z,51.17
2018-10-12T18:15:23.705Z,47.07
2018-10-12T18:17:51.036Z,46.07
2018-10-12T18:20:18.395Z,54.90
2018-10-12T18:22:45.647Z,51.27
2018-10-12T18:25:12.866Z,51.77
2018-10-12T18:27:40.235Z,54.20
2018-10-12T18:30:07.709Z,49.67
2018-10-12T18:32:34.988Z,45.40
2018-10-12T18:35:02.360Z,52.13
2018-10-12T18:37:29.610Z,51.30
2018-10-12T18:39:56.819Z,54.80
2018-10-12T18:42:24.378Z,53.93
2018-10-12T18:44:51.738Z,45.70
2018-10-12T18:47:22.789Z,49.87
2018-10-12T18:49:55.882Z,49.87
2018-10-12T18:52:26.128Z,49.60
2018-10-12T18:54:59.315Z,52.50
2018-10-12T18:57:29.138Z,51.13
2018-10-12T18:59:56.552Z,55.77
2018-10-12T19:02:23.927Z,49.70
2018-10-12T19:04:51.359Z,47.53
2018-10-12T19:07:20.322Z,55.87
2018-10-12T19:09:49.707Z,53.63
2018-10-12T19:12:23.222Z,50.87
2018-10-12T19:14:55.194Z,51.43
2018-10-12T19:17:27.582Z,50.50
2018-10-12T19:19:57.541Z,49.47
2018-10-12T19:22:30.743Z,53.53
2018-10-12T19:24:59.910Z,47.43
2018-10-12T19:27:30.772Z,51.50
2018-10-12T19:30:07.045Z,47.03
2018-10-12T19:32:34.330Z,47.93
2018-10-12T19:35:01.669Z,49.43
2018-10-12T19:37:29.331Z,50.37
2018-10-12T19:39:57.036Z,47.70
2018-10-12T19:42:24.714Z,47.70
2018-10-12T19:44:53.897Z,49.53
2018-10-12T19:47:21.414Z,46.13
2018-10-12T19:49:48.695Z,51.07
2018-10-12T19:52:16.087Z,47.53
2018-10-12T19:54:44.068Z,50.77
2018-10-12T19:57:11.403Z,50.27
2018-10-12T19:59:38.709Z,47.33
2018-10-12T20:02:05.935Z,49.80
2018-10-12T20:04:33.215Z,48.93
2018-10-12T20:07:00.911Z,47.87
2018-10-12T20:09:28.195Z,48.00
2018-10-12T20:11:55.441Z,48.97
2018-10-12T20:14:22.790Z,55.20
2018-10-12T20:16:50.028Z,54.23
2018-10-12T20:19:17.257Z,49.20
2018-10-12T20:21:44.627Z,47.77
2018-10-12T20:24:11.926Z,48.50
2018-10-12T20:26:39.188Z,48.23
2018-10-12T20:29:06.592Z,47.67
2018-10-12T20:31:33.914Z,50.80
2018-10-12T20:34:01.099Z,47.70
2018-10-12T20:36:28.571Z,49.70
2018-10-12T20:38:55.798Z,49.80
2018-10-12T20:41:23.034Z,48.10
2018-10-12T20:43:50.384Z,47.60
2018-10-12T20:46:17.618Z,51.20
2018-10-12T20:48:45.006Z,45.87
2018-10-12T20:51:12.382Z,47.97
2018-10-12T20:53:39.639Z,48.17
2018-10-12T20:56:07.186Z,45.37
2018-10-12T20:58:34.550Z,45.50
2018-10-12T21:01:01.802Z,46.40
2018-10-12T21:03:29.062Z,51.67
2018-10-12T21:05:56.492Z,45.43
2018-10-12T21:08:23.728Z,44.23
2018-10-12T21:10:50.940Z,46.03
2018-10-12T21:13:18.280Z,49.30
2018-10-12T21:15:45.497Z,46.80
2018-10-12T21:18:12.722Z,49.60
2018-10-12T21:20:39.998Z,48.63
2018-10-12T21:23:07.360Z,53.10
2018-10-12T21:25:34.574Z,47.13
2018-10-12T21:28:02.018Z,46.80
2018-10-12T21:30:29.251Z,47.00
2018-10-12T21:32:57.274Z,50.83
2018-10-12T21:35:24.907Z,48.90
2018-10-12T21:37:52.291Z,45.33
2018-10-12T21:40:19.618Z,50.37
2018-10-12T21:42:46.927Z,48.47
2018-10-12T21:45:14.182Z,45.50
2018-10-12T21:47:41.415Z,48.63
2018-10-12T21:50:08.799Z,45.03
2018-10-12T21:52:36.019Z,44.27
2018-10-12T21:55:03.439Z,40.57
2018-10-12T21:57:30.816Z,48.93
2018-10-12T21:59:58.139Z,44.23
2018-10-12T22:02:26.027Z,44.03
2018-10-12T22:04:53.392Z,42.17
2018-10-12T22:07:20.681Z,49.70
2018-10-12T22:09:47.858Z,43.60
2018-10-12T22:12:15.211Z,42.43
2018-10-12T22:14:42.471Z,41.73
2018-10-12T22:17:09.748Z,42.63
2018-10-12T22:19:37.090Z,42.47
2018-10-12T22:22:04.323Z,38.53
2018-10-12T22:24:31.611Z,41.67
2018-10-12T22:26:58.984Z,42.63
2018-10-12T22:29:26.223Z,42.10
2018-10-12T22:31:53.510Z,49.03
2018-10-12T22:34:20.791Z,42.93
2018-10-12T22:36:48.051Z,41.83
2018-10-12T22:39:15.467Z,42.50
2018-10-12T22:41:42.751Z,47.07
2018-10-12T22:44:10.042Z,45.50
2018-10-12T22:46:37.282Z,41.13
2018-10-12T22:49:11.270Z,45.17
2018-10-12T22:51:45.537Z,42.90
2018-10-12T22:54:12.907Z,44.60
2018-10-12T22:56:40.131Z,44.93
2018-10-12T22:59:07.526Z,40.83
2018-10-12T23:01:34.890Z,46.17
2018-10-12T23:04:02.158Z,41.97
2018-10-12T23:06:29.446Z,42.60
2018-10-12T23:08:56.802Z,40.70
2018-10-12T23:11:24.041Z,44.37
2018-10-12T23:13:51.322Z,41.97
2018-10-12T23:16:18.636Z,41.57
2018-10-12T23:18:45.971Z,45.33
2018-10-12T23:21:13.290Z,43.23
2018-10-12T23:23:40.592Z,43.97
2018-10-12T23:26:07.826Z,43.77
2018-10-12T23:28:35.055Z,43.57
2018-10-12T23:31:02.433Z,46.40
2018-10-12T23:33:41.168Z,44.90
2018-10-12T23:36:08.562Z,42.20
2018-10-12T23:38:35.864Z,44.20
2018-10-12T23:41:03.102Z,43.90
2018-10-12T23:43:30.337Z,41.40
2018-10-12T23:45:57.586Z,40.60
2018-10-12T23:48:24.852Z,39.83
2018-10-12T23:50:52.115Z,40.43
2018-10-12T23:53:19.355Z,38.77
2018-10-12T23:55:46.708Z,37.87
2018-10-12T23:58:14.108Z,38.17
